Time;durP1;ratioP1;P1;durP2;ratioP2;P2;SDS_P1;SDS_P2;PMS_P1;PMS_P2;Temp;Humidity;BMP_temperature;BMP_pressure;BME280_temperature;BME280_humidity;BME280_pressure;Samples;Min_cycle;Max_cycle;Signal;HPM_P1;HPM_P2
2024/04/09 00:00:46;;;;;;;35.78;32.05;;;15.60;79.40;;;;;;5366397;26;110497;-51
2024/04/09 00:03:13;;;;;;;35.72;32.17;;;15.70;79.90;;;;;;5364869;26;113286;-50
2024/04/09 00:05:39;;;;;;;35.97;32.33;;;15.60;79.80;;;;;;5365189;26;110469;-50
2024/04/09 00:08:07;;;;;;;34.60;31.20;;;15.60;79.90;;;;;;5366059;26;110902;-50
2024/04/09 00:10:36;;;;;;;35.45;31.75;;;15.50;79.90;;;;;;5366199;26;111019;-50
2024/04/09 00:13:04;;;;;;;35.13;31.73;;;15.50;79.90;;;;;;5364925;26;111072;-50
2024/04/09 00:15:33;;;;;;;36.00;32.28;;;15.50;80.40;;;;;;5356871;26;110772;-50
2024/04/09 00:18:11;;;;;;;33.95;30.73;;;15.60;80.40;;;;;;5350104;26;110774;-50
2024/04/09 00:20:40;;;;;;;34.60;31.02;;;15.60;80.30;;;;;;5366067;26;110436;-50
2024/04/09 00:23:06;;;;;;;36.78;32.72;;;15.50;80.50;;;;;;5364870;26;111680;-50
2024/04/09 00:25:32;;;;;;;34.83;31.63;;;15.30;81.00;;;;;;5364889;26;111827;-50
2024/04/09 00:27:59;;;;;;;36.13;32.28;;;15.30;81.40;;;;;;5364696;26;110434;-50
2024/04/09 00:30:27;;;;;;;35.70;31.90;;;15.40;81.10;;;;;;5329240;26;110640;-50
2024/04/09 00:32:53;;;;;;;39.13;35.20;;;15.40;81.00;;;;;;5329053;26;112436;-49
2024/04/09 00:35:23;;;;;;;40.15;36.38;;;15.40;81.20;;;;;;5329401;26;110744;-50
2024/04/09 00:37:56;;;;;;;41.35;37.35;;;15.40;81.40;;;;;;5330410;26;110620;-50
2024/04/09 00:40:24;;;;;;;42.05;37.17;;;15.40;81.40;;;;;;5330676;26;110499;-50
2024/04/09 00:42:52;;;;;;;38.72;35.08;;;15.40;81.70;;;;;;5328950;26;111230;-50
2024/04/09 00:45:19;;;;;;;43.28;38.85;;;15.40;81.30;;;;;;5329500;26;110546;-50
2024/04/09 00:47:49;;;;;;;43.78;39.30;;;15.50;81.00;;;;;;5329985;26;110690;-50
2024/04/09 00:50:17;;;;;;;44.42;40.13;;;15.50;81.10;;;;;;5330386;26;110708;-50
2024/04/09 00:52:44;;;;;;;46.85;42.50;;;15.60;81.30;;;;;;5327831;26;111343;-50
2024/04/09 00:55:15;;;;;;;45.80;41.42;;;15.60;81.30;;;;;;5329134;26;111456;-50
2024/04/09 00:57:47;;;;;;;44.67;40.28;;;15.50;81.50;;;;;;5330497;26;110494;-50
2024/04/09 01:00:14;;;;;;;45.45;41.05;;;15.40;81.50;;;;;;5330245;26;110418;-50
2024/04/09 01:02:41;;;;;;;46.25;41.92;;;15.40;81.50;;;;;;5328855;26;111084;-50
2024/04/09 01:05:08;;;;;;;47.85;43.40;;;15.40;81.70;;;;;;5328780;26;110325;-50
2024/04/09 01:07:34;;;;;;;47.88;43.08;;;15.40;81.70;;;;;;5329872;26;110758;-50
2024/04/09 01:10:00;;;;;;;49.35;44.60;;;15.40;81.80;;;;;;5329832;26;110547;-49
2024/04/09 01:12:26;;;;;;;52.35;47.13;;;15.50;81.80;;;;;;5328747;26;112519;-51
2024/04/09 01:14:52;;;;;;;51.97;46.88;;;15.40;82.20;;;;;;5328641;26;110762;-50
2024/04/09 01:17:19;;;;;;;52.03;46.85;;;15.40;82.40;;;;;;5329908;26;110758;-50
2024/04/09 01:19:45;;;;;;;50.72;45.80;;;15.40;82.30;;;;;;5329786;26;110581;-50
2024/04/09 01:22:11;;;;;;;53.92;48.80;;;15.40;82.10;;;;;;5328723;26;112596;-50
2024/04/09 01:24:37;;;;;;;54.65;49.25;;;15.30;82.50;;;;;;5328665;26;110348;-51
2024/04/09 01:27:05;;;;;;;52.80;47.20;;;15.30;82.60;;;;;;5329553;26;110537;-51
2024/04/09 01:29:32;;;;;;;51.47;46.33;;;15.30;82.70;;;;;;5329705;26;110587;-50
2024/04/09 01:31:58;;;;;;;55.20;49.92;;;15.40;82.10;;;;;;5328268;26;112459;-50
2024/04/09 01:34:24;;;;;;;57.00;51.45;;;15.30;82.40;;;;;;5328504;26;110863;-51
2024/04/09 01:36:49;;;;;;;58.25;52.75;;;15.30;82.70;;;;;;5329298;26;110635;-51
2024/04/09 01:39:15;;;;;;;59.40;53.53;;;15.30;82.80;;;;;;5329645;26;111388;-50
2024/04/09 01:41:41;;;;;;;56.72;51.22;;;15.30;82.90;;;;;;5328254;26;112565;-51
2024/04/09 01:44:07;;;;;;;59.67;53.50;;;15.30;82.80;;;;;;5328022;26;110372;-51
2024/04/09 01:46:34;;;;;;;61.45;55.00;;;15.30;82.80;;;;;;5329229;26;110365;-50
2024/04/09 01:48:59;;;;;;;62.45;56.45;;;15.30;82.90;;;;;;5329006;26;110952;-51
2024/04/09 01:51:25;;;;;;;62.03;56.00;;;15.30;83.40;;;;;;5328364;26;112657;-51
2024/04/09 01:53:53;;;;;;;65.55;58.90;;;15.40;83.20;;;;;;5328089;26;111820;-51
2024/04/09 01:56:19;;;;;;;64.18;58.03;;;15.40;83.30;;;;;;5329136;26;110410;-50
2024/04/09 01:58:46;;;;;;;66.18;59.60;;;15.40;83.20;;;;;;5329712;26;110533;-50
2024/04/09 02:01:14;;;;;;;65.97;59.35;;;15.30;83.30;;;;;;5332708;26;112722;-50
2024/04/09 02:03:40;;;;;;;66.75;60.05;;;15.30;83.30;;;;;;5339271;26;110777;-51
2024/04/09 02:06:07;;;;;;;69.68;63.10;;;15.30;83.50;;;;;;5327860;26;110594;-50
2024/04/09 02:08:33;;;;;;;73.80;65.97;;;15.30;83.50;;;;;;5321673;26;110948;-50
2024/04/09 02:10:59;;;;;;;70.32;63.22;;;15.30;83.80;;;;;;5309827;26;111493;-55
2024/04/09 02:13:25;;;;;;;67.35;60.78;;;15.30;83.60;;;;;;5320332;26;113176;-51
2024/04/09 02:15:52;;;;;;;68.35;61.63;;;15.40;83.50;;;;;;5319004;26;111302;-50
2024/04/09 02:18:18;;;;;;;68.63;62.03;;;15.30;83.40;;;;;;5330235;26;110936;-51
2024/04/09 02:20:45;;;;;;;70.13;63.28;;;15.30;83.70;;;;;;5330840;26;111290;-50
2024/04/09 02:23:11;;;;;;;72.20;64.88;;;15.30;83.70;;;;;;5330608;26;110843;-50
2024/04/09 02:25:40;;;;;;;71.20;64.05;;;15.20;83.80;;;;;;5331874;26;110421;-50
2024/04/09 02:28:07;;;;;;;74.25;67.03;;;15.20;84.00;;;;;;5331790;26;112499;-53
2024/04/09 02:30:33;;;;;;;70.22;62.95;;;15.10;84.00;;;;;;5330704;26;111132;-50
2024/04/09 02:32:59;;;;;;;71.25;64.15;;;15.10;84.10;;;;;;5330711;26;110562;-51
2024/04/09 02:35:24;;;;;;;73.28;65.78;;;15.10;84.00;;;;;;5331825;26;110988;-50
2024/04/09 02:37:50;;;;;;;72.10;64.97;;;15.10;83.90;;;;;;5331526;26;110626;-52
2024/04/09 02:40:16;;;;;;;69.15;62.25;;;15.10;83.90;;;;;;5330594;26;111262;-50
2024/04/09 02:42:45;;;;;;;74.32;67.38;;;15.30;83.90;;;;;;5330282;26;111459;-52
2024/04/09 02:45:11;;;;;;;75.82;68.38;;;15.40;84.10;;;;;;5331785;26;113399;-51
2024/04/09 02:47:37;;;;;;;76.10;68.68;;;15.40;84.00;;;;;;5331363;26;110665;-50
2024/04/09 02:50:03;;;;;;;77.03;69.47;;;15.40;84.10;;;;;;5330555;26;112305;-51
2024/04/09 02:52:32;;;;;;;75.10;67.55;;;15.40;83.90;;;;;;5330266;26;110694;-50
2024/04/09 02:54:58;;;;;;;74.85;67.57;;;15.40;84.10;;;;;;5331462;26;111072;-50
2024/04/09 02:57:24;;;;;;;72.53;65.32;;;15.60;84.00;;;;;;5331680;26;110778;-50
2024/04/09 02:59:53;;;;;;;74.43;67.13;;;15.60;84.00;;;;;;5330403;26;111210;-50
2024/04/09 03:02:18;;;;;;;76.28;68.70;;;15.40;84.20;;;;;;5330484;26;111898;-50
2024/04/09 03:04:45;;;;;;;74.55;67.50;;;15.50;84.20;;;;;;5331058;26;110935;-50
2024/04/09 03:07:10;;;;;;;71.95;64.90;;;15.50;84.10;;;;;;5331489;26;110604;-50
2024/04/09 03:09:36;;;;;;;75.07;67.97;;;15.60;84.00;;;;;;5330081;26;113299;-50
2024/04/09 03:12:02;;;;;;;72.15;65.40;;;15.60;83.90;;;;;;5330278;26;110599;-50
2024/04/09 03:14:31;;;;;;;70.60;63.95;;;15.60;84.00;;;;;;5330760;26;110616;-51
2024/04/09 03:16:57;;;;;;;74.30;66.80;;;15.70;83.70;;;;;;5331124;26;110583;-50
2024/04/09 03:19:23;;;;;;;71.00;64.18;;;15.70;83.80;;;;;;5330119;26;112239;-50
2024/04/09 03:21:48;;;;;;;72.47;65.60;;;15.70;83.70;;;;;;5305688;26;111803;-50
2024/04/09 03:24:14;;;;;;;73.00;66.00;;;15.70;83.80;;;;;;5331088;26;110477;-50
2024/04/09 03:26:40;;;;;;;73.78;66.75;;;15.60;83.60;;;;;;5330930;26;111356;-50
2024/04/09 03:29:06;;;;;;;72.57;65.30;;;15.50;84.00;;;;;;5330166;26;111074;-50
2024/04/09 03:31:32;;;;;;;73.82;66.60;;;15.50;84.30;;;;;;5329962;26;110768;-50
2024/04/09 03:34:00;;;;;;;71.38;64.30;;;15.40;84.50;;;;;;5331067;26;111022;-50
2024/04/09 03:36:26;;;;;;;72.30;65.03;;;15.40;84.50;;;;;;5330903;26;110734;-53
2024/04/09 03:38:52;;;;;;;71.53;64.43;;;15.40;84.50;;;;;;5329857;26;111037;-50
2024/04/09 03:41:18;;;;;;;71.60;64.60;;;15.50;84.40;;;;;;5329937;26;110795;-50
2024/04/09 03:43:44;;;;;;;71.85;64.57;;;15.50;84.30;;;;;;5330632;26;110863;-51
2024/04/09 03:46:16;;;;;;;69.47;62.67;;;15.40;84.50;;;;;;5331166;26;111138;-50
2024/04/09 03:48:43;;;;;;;71.03;64.05;;;15.40;84.50;;;;;;5329903;26;112234;-50
2024/04/09 03:51:10;;;;;;;68.20;61.20;;;15.40;84.60;;;;;;5329806;26;111567;-50
2024/04/09 03:53:37;;;;;;;73.93;66.30;;;15.30;84.80;;;;;;5328969;26;110923;-51
2024/04/09 03:56:04;;;;;;;71.72;64.50;;;15.30;84.80;;;;;;5330683;26;110515;-50
2024/04/09 03:58:31;;;;;;;70.43;63.63;;;15.40;84.60;;;;;;5330304;26;111087;-51
2024/04/09 04:00:59;;;;;;;70.10;63.03;;;15.40;84.60;;;;;;5329665;26;111504;-50
2024/04/09 04:03:26;;;;;;;67.60;60.85;;;15.40;84.70;;;;;;5330740;26;110790;-50
2024/04/09 04:05:53;;;;;;;70.07;63.15;;;15.40;84.60;;;;;;5330635;26;110571;-50
2024/04/09 04:08:20;;;;;;;70.13;63.20;;;15.40;84.50;;;;;;5328053;26;112800;-50
2024/04/09 04:10:57;;;;;;;68.90;62.05;;;15.30;84.90;;;;;;5329682;26;111763;-50
2024/04/09 04:13:25;;;;;;;66.25;59.60;;;15.30;85.10;;;;;;5331045;26;110536;-50
2024/04/09 04:16:07;;;;;;;65.80;59.15;;;15.30;85.00;;;;;;5330739;26;110718;-50
2024/04/09 04:18:36;;;;;;;67.65;61.08;;;15.40;85.10;;;;;;5329856;26;112831;-50
2024/04/09 04:21:12;;;;;;;67.50;60.47;;;15.30;84.90;;;;;;5329477;26;110557;-50
2024/04/09 04:23:39;;;;;;;64.80;58.25;;;15.20;85.30;;;;;;5330684;26;111036;-49
2024/04/09 04:26:06;;;;;;;67.50;60.60;;;15.20;85.30;;;;;;5330132;26;110611;-50
2024/04/09 04:28:38;;;;;;;68.70;61.80;;;15.20;85.50;;;;;;5328112;26;112323;-50
2024/04/09 04:31:09;;;;;;;64.30;57.53;;;15.30;85.60;;;;;;5329722;26;110540;-50
2024/04/09 04:33:36;;;;;;;63.90;57.60;;;15.30;85.60;;;;;;5330479;26;111738;-50
2024/04/09 04:36:02;;;;;;;59.92;53.67;;;15.30;85.70;;;;;;5330499;26;110810;-50
2024/04/09 04:38:28;;;;;;;65.03;58.28;;;15.20;86.10;;;;;;5329201;26;113183;-50
2024/04/09 04:40:54;;;;;;;62.95;56.50;;;15.20;86.10;;;;;;5329177;26;111512;-50
2024/04/09 04:43:20;;;;;;;62.35;55.80;;;15.30;86.20;;;;;;5330515;26;111014;-50
2024/04/09 04:45:47;;;;;;;59.70;53.65;;;15.20;86.00;;;;;;5330264;26;111279;-51
2024/04/09 04:48:13;;;;;;;57.78;51.72;;;15.30;86.30;;;;;;5329419;26;111132;-50
2024/04/09 04:50:39;;;;;;;57.55;51.72;;;15.30;86.40;;;;;;5329245;26;112007;-50
2024/04/09 04:53:06;;;;;;;57.47;51.67;;;15.30;86.10;;;;;;5330510;26;110458;-50
2024/04/09 04:55:32;;;;;;;52.92;47.65;;;15.30;86.30;;;;;;5330375;26;111180;-50
2024/04/09 04:57:59;;;;;;;55.90;50.25;;;15.40;86.10;;;;;;5329611;26;111032;-50
2024/04/09 05:00:26;;;;;;;54.40;48.65;;;15.40;85.90;;;;;;5329217;26;110675;-50
2024/04/09 05:02:51;;;;;;;52.38;46.92;;;15.40;86.00;;;;;;5329980;26;110377;-50
2024/04/09 05:05:17;;;;;;;51.22;46.00;;;15.40;86.20;;;;;;5330263;26;110385;-50
2024/04/09 05:07:43;;;;;;;46.97;42.25;;;15.40;86.10;;;;;;5328976;26;111071;-50
2024/04/09 05:10:12;;;;;;;48.13;43.15;;;15.40;86.30;;;;;;5329108;26;110644;-50
2024/04/09 05:12:44;;;;;;;47.17;40.85;;;15.50;86.20;;;;;;5329600;26;110894;-50
2024/04/09 05:15:10;;;;;;;48.92;40.92;;;15.40;86.20;;;;;;5330003;26;111018;-50
2024/04/09 05:17:36;;;;;;;46.88;41.78;;;15.50;86.00;;;;;;5328713;26;111358;-50
2024/04/09 05:20:14;;;;;;;52.45;45.85;;;15.50;86.20;;;;;;5328557;26;110663;-51
2024/04/09 05:22:47;;;;;;;48.50;43.42;;;15.60;86.10;;;;;;5329937;26;110637;-50
2024/04/09 05:25:15;;;;;;;49.28;43.85;;;15.60;86.00;;;;;;5329965;26;110499;-50
2024/04/09 05:27:41;;;;;;;46.80;41.95;;;15.60;86.20;;;;;;5328574;26;112649;-50
2024/04/09 05:30:10;;;;;;;47.28;42.20;;;15.70;86.20;;;;;;5328572;26;111549;-50
2024/04/09 05:32:39;;;;;;;45.17;40.60;;;15.80;86.10;;;;;;5329662;26;110533;-50
2024/04/09 05:35:06;;;;;;;43.90;39.60;;;15.80;86.10;;;;;;5329747;26;110631;-50
2024/04/09 05:37:32;;;;;;;42.45;38.25;;;15.80;86.00;;;;;;5328241;26;111058;-51
2024/04/09 05:39:58;;;;;;;43.55;39.00;;;16.00;85.50;;;;;;5331159;26;111807;-50
2024/04/09 05:42:24;;;;;;;44.88;40.17;;;16.10;85.10;;;;;;5332148;26;110737;-50
2024/04/09 05:44:50;;;;;;;43.35;38.53;;;16.10;85.30;;;;;;5332365;26;110715;-50
2024/04/09 05:47:17;;;;;;;42.97;38.67;;;16.20;85.30;;;;;;5330824;26;112632;-50
2024/04/09 05:49:44;;;;;;;43.08;38.88;;;16.20;85.20;;;;;;5331347;26;110444;-50
2024/04/09 05:52:10;;;;;;;43.45;37.25;;;16.20;85.20;;;;;;5332371;26;110393;-50
2024/04/09 05:54:40;;;;;;;43.17;38.50;;;16.30;85.20;;;;;;5332086;26;111350;-50
2024/04/09 05:57:06;;;;;;;41.88;37.58;;;16.30;85.30;;;;;;5331627;26;111338;-50
2024/04/09 05:59:33;;;;;;;40.63;36.75;;;16.20;85.60;;;;;;5330991;26;111702;-50
2024/04/09 06:01:58;;;;;;;40.72;35.90;;;16.40;85.30;;;;;;5332352;26;111129;-50
2024/04/09 06:04:24;;;;;;;39.80;35.80;;;16.50;85.10;;;;;;5331945;26;110718;-50
2024/04/09 06:06:51;;;;;;;41.00;35.78;;;16.60;84.70;;;;;;5331240;26;111502;-50
2024/04/09 06:09:17;;;;;;;40.35;36.03;;;16.60;84.80;;;;;;5330799;26;111537;-51
2024/04/09 06:11:43;;;;;;;40.08;35.85;;;16.80;84.40;;;;;;5332147;26;110591;-51
2024/04/09 06:14:09;;;;;;;39.92;34.50;;;16.80;84.20;;;;;;5332118;26;110514;-50
2024/04/09 06:16:34;;;;;;;40.85;36.75;;;16.90;84.10;;;;;;5330850;26;112436;-50
2024/04/09 06:19:00;;;;;;;36.13;32.63;;;16.90;84.30;;;;;;5330887;26;110471;-50
2024/04/09 06:21:26;;;;;;;38.70;34.10;;;16.90;84.30;;;;;;5331807;26;110925;-51
2024/04/09 06:23:51;;;;;;;35.50;31.75;;;17.00;83.80;;;;;;5331843;26;110728;-51
2024/04/09 06:26:20;;;;;;;35.85;32.00;;;17.10;83.80;;;;;;5330550;26;111139;-51
2024/04/09 06:28:50;;;;;;;35.45;30.23;;;17.00;84.20;;;;;;5330780;26;110870;-50
2024/04/09 06:31:16;;;;;;;31.35;28.15;;;17.10;84.10;;;;;;5332078;26;110488;-51
2024/04/09 06:33:41;;;;;;;29.85;26.75;;;17.40;83.20;;;;;;5331783;26;110718;-50
2024/04/09 06:36:08;;;;;;;29.48;26.08;;;17.50;82.90;;;;;;5330573;26;111024;-51
2024/04/09 06:38:33;;;;;;;31.30;27.52;;;17.40;82.90;;;;;;5336570;26;110881;-50
2024/04/09 06:40:59;;;;;;;32.20;26.13;;;17.50;83.00;;;;;;5359075;26;110462;-51
2024/04/09 06:43:25;;;;;;;33.63;25.55;;;17.50;82.90;;;;;;5364716;26;110884;-51
2024/04/09 06:45:50;;;;;;;29.75;25.13;;;17.60;82.70;;;;;;5358190;26;111066;-51
2024/04/09 06:48:16;;;;;;;27.73;23.27;;;17.70;82.30;;;;;;5332523;26;111394;-51
2024/04/09 06:50:42;;;;;;;25.40;22.67;;;17.70;82.10;;;;;;5338638;26;110562;-52
2024/04/09 06:53:08;;;;;;;26.23;23.40;;;17.80;82.00;;;;;;5338340;26;110873;-51
2024/04/09 06:55:34;;;;;;;29.88;22.20;;;17.80;81.60;;;;;;5347360;26;112307;-50
2024/04/09 06:57:59;;;;;;;27.17;23.42;;;17.80;81.70;;;;;;5342003;26;112447;-50
2024/04/09 07:00:25;;;;;;;27.98;22.90;;;17.70;81.70;;;;;;5344956;26;110616;-50
2024/04/09 07:02:52;;;;;;;25.02;21.95;;;17.80;81.70;;;;;;5346192;26;110540;-51
2024/04/09 07:05:18;;;;;;;27.42;21.95;;;17.90;81.20;;;;;;5345024;26;112554;-50
2024/04/09 07:07:44;;;;;;;27.17;21.90;;;17.90;81.20;;;;;;5346280;26;112406;-51
2024/04/09 07:10:12;;;;;;;24.95;21.70;;;18.00;80.80;;;;;;5343509;26;110391;-51
2024/04/09 07:12:38;;;;;;;24.58;21.25;;;18.20;80.70;;;;;;5341213;26;111024;-50
2024/04/09 07:15:04;;;;;;;24.25;20.38;;;18.40;79.90;;;;;;5343017;26;112424;-51
2024/04/09 07:17:30;;;;;;;23.70;19.90;;;18.50;79.20;;;;;;5337221;26;111722;-50
2024/04/09 07:19:58;;;;;;;25.80;19.67;;;18.70;79.30;;;;;;5332679;26;110695;-50
2024/04/09 07:22:25;;;;;;;22.05;19.67;;;18.80;78.70;;;;;;5331992;26;110651;-50
2024/04/09 07:24:51;;;;;;;21.33;18.17;;;18.90;78.50;;;;;;5333927;26;111434;-51
2024/04/09 07:27:17;;;;;;;20.50;18.33;;;19.00;78.10;;;;;;5348902;26;111693;-51
2024/04/09 07:29:42;;;;;;;23.90;18.75;;;19.00;78.00;;;;;;5331617;26;110377;-50
2024/04/09 07:32:08;;;;;;;22.92;18.70;;;19.10;77.30;;;;;;5330714;26;111203;-50
2024/04/09 07:34:34;;;;;;;19.10;16.98;;;19.30;77.30;;;;;;5329472;26;112291;-51
2024/04/09 07:37:00;;;;;;;20.38;18.33;;;19.40;76.70;;;;;;5331033;26;111835;-50
2024/04/09 07:39:26;;;;;;;19.05;17.02;;;19.60;75.60;;;;;;5330680;26;110436;-50
2024/04/09 07:41:52;;;;;;;23.60;18.83;;;19.80;75.50;;;;;;5333435;26;111883;-51
2024/04/09 07:44:18;;;;;;;20.58;18.02;;;19.90;74.50;;;;;;5335721;26;111637;-50
2024/04/09 07:46:48;;;;;;;24.40;19.02;;;19.90;74.80;;;;;;5329276;26;111782;-51
2024/04/09 07:49:14;;;;;;;22.63;17.90;;;19.90;74.30;;;;;;5326143;26;110552;-51
2024/04/09 07:51:41;;;;;;;18.65;16.73;;;19.90;74.20;;;;;;5335356;26;110487;-50
2024/04/09 07:54:07;;;;;;;20.73;18.48;;;20.10;73.50;;;;;;5338473;26;114948;-50
2024/04/09 07:56:33;;;;;;;20.48;17.13;;;20.20;73.60;;;;;;5349947;26;111504;-51
2024/04/09 07:58:59;;;;;;;24.08;19.85;;;20.40;72.50;;;;;;5343332;26;110423;-51
2024/04/09 08:01:25;;;;;;;23.02;20.63;;;20.40;72.30;;;;;;5318523;26;110532;-51
2024/04/09 08:03:51;;;;;;;24.95;22.38;;;20.30;72.70;;;;;;5338190;26;111213;-51
2024/04/09 08:06:17;;;;;;;24.58;21.98;;;20.60;72.10;;;;;;5343738;26;110726;-50
2024/04/09 08:08:42;;;;;;;23.35;20.33;;;20.70;71.80;;;;;;5354338;26;110980;-51
2024/04/09 08:11:13;;;;;;;24.98;21.25;;;20.90;71.50;;;;;;5349764;26;112412;-51
2024/04/09 08:13:38;;;;;;;21.98;19.88;;;20.60;70.90;;;;;;5344123;26;111353;-51
2024/04/09 08:16:05;;;;;;;24.30;21.05;;;20.70;71.10;;;;;;5342944;26;110784;-51
2024/04/09 08:18:31;;;;;;;24.75;20.95;;;20.80;69.90;;;;;;5351334;26;110867;-50
2024/04/09 08:20:57;;;;;;;26.55;19.95;;;20.90;70.80;;;;;;5355754;26;110802;-51
2024/04/09 08:23:23;;;;;;;24.73;19.70;;;21.20;69.90;;;;;;5346774;26;112417;-51
2024/04/09 08:25:51;;;;;;;22.83;20.17;;;21.10;69.90;;;;;;5347235;26;110535;-54
2024/04/09 08:28:20;;;;;;;21.73;19.17;;;21.00;69.50;;;;;;5342664;26;110480;-51
2024/04/09 08:30:47;;;;;;;22.70;18.65;;;21.10;69.90;;;;;;5339650;26;111103;-51
2024/04/09 08:33:12;;;;;;;21.23;18.63;;;21.40;69.40;;;;;;5352411;26;111121;-51
2024/04/09 08:35:46;;;;;;;22.20;19.70;;;21.40;68.60;;;;;;5352798;26;110687;-51
2024/04/09 08:38:13;;;;;;;23.27;20.85;;;21.50;68.00;;;;;;5338930;26;110592;-51
2024/04/09 08:40:39;;;;;;;22.95;20.63;;;21.40;68.90;;;;;;5329825;26;110581;-50
2024/04/09 08:43:04;;;;;;;22.20;19.80;;;21.60;68.10;;;;;;5328891;26;113947;-51
2024/04/09 08:45:31;;;;;;;21.98;19.20;;;21.60;67.70;;;;;;5328523;26;110641;-50
2024/04/09 08:47:59;;;;;;;21.10;18.88;;;21.70;67.20;;;;;;5329947;26;111390;-52
2024/04/09 08:50:26;;;;;;;23.38;19.10;;;21.80;67.60;;;;;;5329867;26;110660;-51
2024/04/09 08:52:54;;;;;;;21.23;18.50;;;22.20;65.50;;;;;;5350022;26;112588;-51
2024/04/09 08:55:21;;;;;;;20.48;17.90;;;22.30;65.10;;;;;;5328584;26;112262;-51
2024/04/09 08:57:48;;;;;;;23.42;18.10;;;22.60;63.90;;;;;;5329778;26;110974;-51
2024/04/09 09:00:16;;;;;;;21.20;16.92;;;22.80;62.90;;;;;;5345089;26;111076;-51
2024/04/09 09:02:43;;;;;;;18.65;16.75;;;23.00;62.80;;;;;;5338576;26;112869;-50
2024/04/09 09:05:17;;;;;;;17.83;15.43;;;23.20;61.10;;;;;;5351387;26;111037;-51
2024/04/09 09:07:43;;;;;;;17.08;15.15;;;23.40;60.40;;;;;;5351627;26;112513;-51
2024/04/09 09:10:10;;;;;;;16.27;14.57;;;23.70;59.90;;;;;;5329432;26;110678;-51
2024/04/09 09:12:36;;;;;;;19.40;15.18;;;23.90;59.60;;;;;;5341036;26;112396;-51
2024/04/09 09:15:01;;;;;;;15.05;12.40;;;23.80;59.00;;;;;;5341265;26;111595;-51
2024/04/09 09:17:31;;;;;;;15.07;13.15;;;23.90;58.00;;;;;;5343565;26;111381;-51
2024/04/09 09:20:01;;;;;;;20.75;13.70;;;24.20;57.00;;;;;;5341629;26;111567;-51
2024/04/09 09:22:35;;;;;;;13.35;11.68;;;24.20;57.50;;;;;;5340474;26;112344;-51
2024/04/09 09:25:05;;;;;;;14.52;12.13;;;23.90;55.60;;;;;;5339460;26;110728;-50
2024/04/09 09:27:30;;;;;;;14.48;12.98;;;24.00;56.10;;;;;;5357915;26;110637;-51
2024/04/09 09:29:57;;;;;;;17.67;13.82;;;24.40;56.40;;;;;;5334262;26;113047;-51
2024/04/09 09:32:23;;;;;;;13.20;11.90;;;24.60;55.70;;;;;;5341329;26;112252;-51
2024/04/09 09:34:51;;;;;;;14.02;12.57;;;24.80;54.70;;;;;;5333967;26;112568;-51
2024/04/09 09:37:17;;;;;;;15.55;12.23;;;24.60;55.20;;;;;;5312071;26;110501;-51
2024/04/09 09:39:42;;;;;;;14.55;13.10;;;25.20;53.50;;;;;;5343717;26;111562;-51
2024/04/09 09:42:12;;;;;;;14.43;11.57;;;24.80;53.00;;;;;;5336771;26;111925;-51
2024/04/09 09:44:39;;;;;;;13.68;9.48;;;24.70;53.80;;;;;;5329231;26;110667;-51
2024/04/09 09:47:06;;;;;;;13.70;12.05;;;25.10;53.30;;;;;;5332012;26;110920;-51
2024/04/09 09:49:33;;;;;;;15.10;13.45;;;25.30;52.10;;;;;;5316233;26;110647;-51
2024/04/09 09:52:00;;;;;;;14.02;11.68;;;25.40;52.60;;;;;;5356833;26;112025;-51
2024/04/09 09:54:29;;;;;;;16.35;14.68;;;25.70;52.20;;;;;;5329744;26;111506;-51
2024/04/09 09:57:07;;;;;;;11.02;9.90;;;25.30;52.50;;;;;;5341707;26;111050;-50
2024/04/09 09:59:42;;;;;;;10.43;8.73;;;25.80;50.00;;;;;;5342654;26;110556;-51
2024/04/09 10:02:09;;;;;;;13.38;10.68;;;25.80;46.60;;;;;;5338575;26;111607;-50
2024/04/09 10:04:37;;;;;;;14.63;10.77;;;25.60;50.20;;;;;;5330690;26;111898;-51
2024/04/09 10:07:04;;;;;;;12.10;9.82;;;25.90;49.50;;;;;;5335961;26;110675;-51
2024/04/09 10:09:37;;;;;;;11.05;8.77;;;25.90;50.10;;;;;;5339809;26;110978;-50
2024/04/09 10:12:03;;;;;;;10.68;9.05;;;26.60;48.50;;;;;;5348677;26;112485;-51
2024/04/09 10:14:40;;;;;;;11.13;8.30;;;26.90;47.40;;;;;;5339627;26;110553;-50
2024/04/09 10:17:13;;;;;;;9.90;8.57;;;27.00;46.80;;;;;;5309194;26;112050;-51
2024/04/09 10:19:41;;;;;;;9.27;8.05;;;27.40;46.80;;;;;;5339784;26;111765;-50
2024/04/09 10:22:06;;;;;;;10.73;7.95;;;27.90;45.60;;;;;;5348743;26;112445;-51
2024/04/09 10:24:36;;;;;;;8.40;7.60;;;28.00;45.40;;;;;;5334447;26;111163;-51
2024/04/09 10:27:03;;;;;;;7.35;6.60;;;27.50;44.20;;;;;;5336723;26;111091;-50
2024/04/09 10:29:29;;;;;;;8.32;7.53;;;29.10;40.70;;;;;;5332749;26;110777;-51
2024/04/09 10:31:55;;;;;;;14.60;6.80;;;29.50;41.00;;;;;;5351930;26;111026;-51
2024/04/09 10:34:26;;;;;;;8.40;6.40;;;30.30;40.70;;;;;;5351264;26;111700;-52
2024/04/09 10:36:54;;;;;;;9.13;6.63;;;28.90;42.50;;;;;;5366729;26;110487;-51
2024/04/09 10:39:21;;;;;;;9.60;6.60;;;28.30;41.70;;;;;;5329495;26;111204;-52
2024/04/09 10:41:57;;;;;;;9.70;6.35;;;27.70;43.60;;;;;;5335719;26;111024;-52
2024/04/09 10:44:26;;;;;;;11.07;7.22;;;27.90;43.80;;;;;;5337747;26;111901;-52
2024/04/09 10:46:52;;;;;;;9.25;6.72;;;28.20;41.60;;;;;;5345453;26;110846;-51
2024/04/09 10:49:18;;;;;;;6.80;6.15;;;28.00;42.80;;;;;;5346270;26;110604;-52
2024/04/09 10:51:48;;;;;;;7.90;5.85;;;28.40;42.60;;;;;;5349581;26;111264;-51
2024/04/09 10:54:15;;;;;;;7.80;6.45;;;28.60;43.00;;;;;;5349518;26;111858;-52
2024/04/09 10:56:41;;;;;;;7.65;6.90;;;28.80;42.10;;;;;;5357023;26;111170;-52
2024/04/09 10:59:21;;;;;;;7.20;5.47;;;28.80;42.60;;;;;;5349014;26;110621;-51
2024/04/09 11:01:47;;;;;;;6.35;5.43;;;29.10;41.30;;;;;;5334421;26;112497;-52
2024/04/09 11:04:13;;;;;;;7.47;5.72;;;29.10;39.70;;;;;;5339234;26;110461;-51
2024/04/09 11:06:42;;;;;;;8.30;4.90;;;28.50;40.50;;;;;;5338673;26;110920;-51
2024/04/09 11:09:08;;;;;;;4.22;3.83;;;28.70;41.80;;;;;;5345438;26;110853;-52
2024/04/09 11:11:35;;;;;;;6.43;4.10;;;29.30;39.90;;;;;;5339983;26;111481;-51
2024/04/09 11:14:04;;;;;;;6.50;4.70;;;29.30;39.30;;;;;;5334939;26;111645;-52
2024/04/09 11:16:30;;;;;;;6.28;4.85;;;29.70;38.90;;;;;;5343145;26;110599;-51
2024/04/09 11:18:59;;;;;;;6.47;4.45;;;30.00;37.80;;;;;;5342045;26;110496;-51
2024/04/09 11:21:28;;;;;;;4.60;3.92;;;29.40;38.80;;;;;;5331614;26;111133;-52
2024/04/09 11:23:55;;;;;;;5.00;4.07;;;29.50;39.80;;;;;;5331768;26;110400;-51
2024/04/09 11:26:21;;;;;;;5.20;4.30;;;30.00;39.00;;;;;;5332760;26;110722;-51
2024/04/09 11:28:50;;;;;;;6.32;3.85;;;30.10;38.10;;;;;;5332808;26;111137;-51
2024/04/09 11:31:20;;;;;;;5.40;4.00;;;29.40;40.40;;;;;;5331646;26;112299;-52
2024/04/09 11:33:45;;;;;;;6.22;4.10;;;29.00;39.60;;;;;;5330083;26;111748;-51
2024/04/09 11:36:14;;;;;;;7.35;4.10;;;29.80;39.70;;;;;;5332308;26;110895;-52
2024/04/09 11:38:40;;;;;;;5.70;3.97;;;30.70;37.40;;;;;;5332872;26;110560;-52
2024/04/09 11:41:07;;;;;;;7.75;4.55;;;30.30;38.20;;;;;;5333165;26;112392;-52
2024/04/09 11:43:33;;;;;;;5.55;4.45;;;29.70;38.60;;;;;;5343194;26;111568;-52
2024/04/09 11:46:00;;;;;;;7.78;4.55;;;29.90;37.90;;;;;;5335111;26;110732;-51
2024/04/09 11:48:26;;;;;;;4.95;4.40;;;29.80;38.10;;;;;;5332796;26;110535;-52
2024/04/09 11:50:52;;;;;;;8.35;4.72;;;30.00;38.40;;;;;;5330165;26;111087;-52
2024/04/09 11:53:17;;;;;;;10.48;5.60;;;30.20;37.60;;;;;;5350651;26;110674;-52
2024/04/09 11:55:43;;;;;;;10.95;5.20;;;30.40;37.20;;;;;;5350287;26;110855;-51
2024/04/09 11:58:09;;;;;;;5.35;4.68;;;30.40;37.60;;;;;;5348549;26;110547;-52
2024/04/09 12:00:35;;;;;;;5.93;4.60;;;30.20;37.80;;;;;;5342285;26;112438;-52
2024/04/09 12:03:02;;;;;;;5.68;4.88;;;30.80;37.30;;;;;;5359841;26;110762;-52
2024/04/09 12:05:28;;;;;;;6.68;5.97;;;30.80;37.50;;;;;;5356140;26;110573;-52
2024/04/09 12:07:54;;;;;;;10.40;8.00;;;30.90;37.30;;;;;;5351557;26;110608;-52
2024/04/09 12:10:21;;;;;;;9.93;7.28;;;30.70;37.40;;;;;;5356640;26;111187;-51
2024/04/09 12:12:46;;;;;;;9.10;7.05;;;30.00;38.80;;;;;;5338997;26;111025;-51
2024/04/09 12:15:12;;;;;;;7.13;6.35;;;29.90;38.40;;;;;;5341283;26;111064;-51
2024/04/09 12:17:39;;;;;;;9.90;6.93;;;29.60;39.00;;;;;;5344303;26;110588;-51
2024/04/09 12:20:06;;;;;;;6.82;4.90;;;28.60;40.60;;;;;;5351798;26;111632;-51